sensor_id;sensor_type;location;lat;lon;timestamp;temperature;humidity
70986;DHT22;58645;43.068;25.610;2023-06-24T00:02:13;23.40;79.80
70986;DHT22;58645;43.068;25.610;2023-06-24T00:04:39;23.40;80.80
70986;DHT22;58645;43.068;25.610;2023-06-24T00:07:05;23.30;81.70
70986;DHT22;58645;43.068;25.610;2023-06-24T00:09:32;23.30;81.60
70986;DHT22;58645;43.068;25.610;2023-06-24T00:11:58;23.30;82.90
70986;DHT22;58645;43.068;25.610;2023-06-24T00:14:25;23.20;82.70
70986;DHT22;58645;43.068;25.610;2023-06-24T00:16:55;23.20;82.30
70986;DHT22;58645;43.068;25.610;2023-06-24T00:19:26;23.10;82.10
70986;DHT22;58645;43.068;25.610;2023-06-24T00:21:52;23.10;82.10
70986;DHT22;58645;43.068;25.610;2023-06-24T00:24:22;23.00;82.00
70986;DHT22;58645;43.068;25.610;2023-06-24T00:26:54;23.00;82.10
70986;DHT22;58645;43.068;25.610;2023-06-24T00:29:20;23.00;82.20
70986;DHT22;58645;43.068;25.610;2023-06-24T00:31:46;23.00;82.70
70986;DHT22;58645;43.068;25.610;2023-06-24T00:34:12;22.90;82.70
70986;DHT22;58645;43.068;25.610;2023-06-24T00:36:38;22.90;82.90
70986;DHT22;58645;43.068;25.610;2023-06-24T00:39:04;22.90;83.00
70986;DHT22;58645;43.068;25.610;2023-06-24T00:41:34;22.80;82.80
70986;DHT22;58645;43.068;25.610;2023-06-24T00:44:01;22.80;83.00
70986;DHT22;58645;43.068;25.610;2023-06-24T00:46:27;22.70;83.40
70986;DHT22;58645;43.068;25.610;2023-06-24T00:48:55;22.70;83.40
70986;DHT22;58645;43.068;25.610;2023-06-24T00:51:21;22.70;83.20
70986;DHT22;58645;43.068;25.610;2023-06-24T00:53:55;22.70;82.90
70986;DHT22;58645;43.068;25.610;2023-06-24T00:56:22;22.70;82.30
70986;DHT22;58645;43.068;25.610;2023-06-24T00:58:50;22.70;81.80
70986;DHT22;58645;43.068;25.610;2023-06-24T01:01:16;22.70;81.70
70986;DHT22;58645;43.068;25.610;2023-06-24T01:03:42;22.70;81.20
70986;DHT22;58645;43.068;25.610;2023-06-24T01:06:08;22.70;81.20
70986;DHT22;58645;43.068;25.610;2023-06-24T01:08:35;22.70;80.80
70986;DHT22;58645;43.068;25.610;2023-06-24T01:11:01;22.70;80.90
70986;DHT22;58645;43.068;25.610;2023-06-24T01:13:27;22.70;80.90
70986;DHT22;58645;43.068;25.610;2023-06-24T01:15:52;22.70;81.00
70986;DHT22;58645;43.068;25.610;2023-06-24T01:18:46;22.70;81.30
70986;DHT22;58645;43.068;25.610;2023-06-24T01:21:28;22.60;81.50
70986;DHT22;58645;43.068;25.610;2023-06-24T01:32:29;22.40;81.40
70986;DHT22;58645;43.068;25.610;2023-06-24T01:35:06;22.40;81.80
70986;DHT22;58645;43.068;25.610;2023-06-24T01:37:45;22.30;82.10
70986;DHT22;58645;43.068;25.610;2023-06-24T01:40:26;22.30;82.30
70986;DHT22;58645;43.068;25.610;2023-06-24T01:42:54;22.30;82.40
70986;DHT22;58645;43.068;25.610;2023-06-24T01:45:27;22.20;82.80
70986;DHT22;58645;43.068;25.610;2023-06-24T01:48:03;22.20;83.20
70986;DHT22;58645;43.068;25.610;2023-06-24T01:50:33;22.20;83.30
70986;DHT22;58645;43.068;25.610;2023-06-24T01:53:04;22.10;82.80
70986;DHT22;58645;43.068;25.610;2023-06-24T01:55:32;22.10;82.80
70986;DHT22;58645;43.068;25.610;2023-06-24T01:58:02;22.10;82.70
70986;DHT22;58645;43.068;25.610;2023-06-24T02:00:29;22.00;82.80
70986;DHT22;58645;43.068;25.610;2023-06-24T02:02:55;22.00;82.40
70986;DHT22;58645;43.068;25.610;2023-06-24T02:05:21;22.00;83.40
70986;DHT22;58645;43.068;25.610;2023-06-24T02:07:49;22.00;81.60
70986;DHT22;58645;43.068;25.610;2023-06-24T02:10:16;22.00;81.50
70986;DHT22;58645;43.068;25.610;2023-06-24T02:12:44;22.00;81.00
70986;DHT22;58645;43.068;25.610;2023-06-24T02:15:11;22.00;80.80
70986;DHT22;58645;43.068;25.610;2023-06-24T02:17:37;22.00;80.90
70986;DHT22;58645;43.068;25.610;2023-06-24T02:20:07;21.90;80.80
70986;DHT22;58645;43.068;25.610;2023-06-24T02:22:37;21.90;80.60
70986;DHT22;58645;43.068;25.610;2023-06-24T02:25:05;21.90;80.60
70986;DHT22;58645;43.068;25.610;2023-06-24T02:27:32;22.00;80.70
70986;DHT22;58645;43.068;25.610;2023-06-24T02:30:00;21.90;80.90
70986;DHT22;58645;43.068;25.610;2023-06-24T02:32:26;21.90;80.60
70986;DHT22;58645;43.068;25.610;2023-06-24T02:34:52;22.00;80.50
70986;DHT22;58645;43.068;25.610;2023-06-24T02:37:18;22.00;80.40
70986;DHT22;58645;43.068;25.610;2023-06-24T02:39:43;22.00;80.40
70986;DHT22;58645;43.068;25.610;2023-06-24T02:42:10;22.00;80.30
70986;DHT22;58645;43.068;25.610;2023-06-24T02:44:37;21.90;80.30
70986;DHT22;58645;43.068;25.610;2023-06-24T02:47:04;22.00;79.80
70986;DHT22;58645;43.068;25.610;2023-06-24T02:49:30;22.00;79.80
70986;DHT22;58645;43.068;25.610;2023-06-24T02:51:57;22.00;79.30
70986;DHT22;58645;43.068;25.610;2023-06-24T02:54:23;22.00;79.60
70986;DHT22;58645;43.068;25.610;2023-06-24T02:56:49;22.00;79.70
70986;DHT22;58645;43.068;25.610;2023-06-24T02:59:15;22.00;79.50
70986;DHT22;58645;43.068;25.610;2023-06-24T03:01:42;22.00;79.40
70986;DHT22;58645;43.068;25.610;2023-06-24T03:04:11;22.00;79.30
70986;DHT22;58645;43.068;25.610;2023-06-24T03:06:37;22.00;79.30
70986;DHT22;58645;43.068;25.610;2023-06-24T03:09:05;22.00;79.30
70986;DHT22;58645;43.068;25.610;2023-06-24T03:11:40;22.00;79.00
70986;DHT22;58645;43.068;25.610;2023-06-24T03:14:06;22.00;79.30
70986;DHT22;58645;43.068;25.610;2023-06-24T03:16:32;22.00;79.70
70986;DHT22;58645;43.068;25.610;2023-06-24T03:18:58;22.00;80.20
70986;DHT22;58645;43.068;25.610;2023-06-24T03:21:24;22.00;80.90
70986;DHT22;58645;43.068;25.610;2023-06-24T03:23:54;21.90;82.40
70986;DHT22;58645;43.068;25.610;2023-06-24T03:26:20;21.80;83.50
70986;DHT22;58645;43.068;25.610;2023-06-24T03:28:46;21.80;84.60
70986;DHT22;58645;43.068;25.610;2023-06-24T03:31:12;21.70;85.60
70986;DHT22;58645;43.068;25.610;2023-06-24T03:33:41;21.70;86.10
70986;DHT22;58645;43.068;25.610;2023-06-24T03:36:10;21.80;86.30
70986;DHT22;58645;43.068;25.610;2023-06-24T03:38:36;21.80;86.50
70986;DHT22;58645;43.068;25.610;2023-06-24T03:41:02;21.80;85.30
70986;DHT22;58645;43.068;25.610;2023-06-24T03:43:28;21.80;84.50
70986;DHT22;58645;43.068;25.610;2023-06-24T03:45:53;21.90;84.90
70986;DHT22;58645;43.068;25.610;2023-06-24T03:48:20;21.90;86.10
70986;DHT22;58645;43.068;25.610;2023-06-24T03:50:46;21.90;85.70
70986;DHT22;58645;43.068;25.610;2023-06-24T03:53:12;22.00;83.90
70986;DHT22;58645;43.068;25.610;2023-06-24T03:55:37;22.00;84.00
70986;DHT22;58645;43.068;25.610;2023-06-24T03:58:03;22.20;84.60
70986;DHT22;58645;43.068;25.610;2023-06-24T04:00:29;22.20;84.70
70986;DHT22;58645;43.068;25.610;2023-06-24T04:02:55;22.30;86.20
70986;DHT22;58645;43.068;25.610;2023-06-24T04:05:22;22.30;85.20
70986;DHT22;58645;43.068;25.610;2023-06-24T04:07:50;22.40;86.60
70986;DHT22;58645;43.068;25.610;2023-06-24T04:10:16;22.40;85.20
70986;DHT22;58645;43.068;25.610;2023-06-24T04:12:44;22.50;86.20
70986;DHT22;58645;43.068;25.610;2023-06-24T04:15:10;22.60;85.50
70986;DHT22;58645;43.068;25.610;2023-06-24T04:17:35;22.70;85.10
70986;DHT22;58645;43.068;25.610;2023-06-24T04:20:01;22.80;84.60
70986;DHT22;58645;43.068;25.610;2023-06-24T04:22:29;22.80;83.70
70986;DHT22;58645;43.068;25.610;2023-06-24T04:24:55;22.90;83.40
70986;DHT22;58645;43.068;25.610;2023-06-24T04:27:21;23.00;82.70
70986;DHT22;58645;43.068;25.610;2023-06-24T04:29:47;23.00;82.80
70986;DHT22;58645;43.068;25.610;2023-06-24T04:32:12;23.00;82.50
70986;DHT22;58645;43.068;25.610;2023-06-24T04:34:38;23.10;82.10
70986;DHT22;58645;43.068;25.610;2023-06-24T04:37:05;23.20;81.70
70986;DHT22;58645;43.068;25.610;2023-06-24T04:39:31;23.30;80.80
70986;DHT22;58645;43.068;25.610;2023-06-24T04:41:57;23.40;80.50
70986;DHT22;58645;43.068;25.610;2023-06-24T04:44:22;23.50;79.90
70986;DHT22;58645;43.068;25.610;2023-06-24T04:46:48;23.50;80.20
70986;DHT22;58645;43.068;25.610;2023-06-24T04:49:14;23.60;80.60
70986;DHT22;58645;43.068;25.610;2023-06-24T04:51:40;23.90;80.30
70986;DHT22;58645;43.068;25.610;2023-06-24T04:54:06;24.10;79.70
70986;DHT22;58645;43.068;25.610;2023-06-24T04:56:33;24.30;78.50
70986;DHT22;58645;43.068;25.610;2023-06-24T04:59:00;24.40;77.40
70986;DHT22;58645;43.068;25.610;2023-06-24T05:01:26;24.50;76.30
70986;DHT22;58645;43.068;25.610;2023-06-24T05:03:51;24.70;76.40
70986;DHT22;58645;43.068;25.610;2023-06-24T05:06:17;24.80;74.20
70986;DHT22;58645;43.068;25.610;2023-06-24T05:08:43;24.90;73.60
70986;DHT22;58645;43.068;25.610;2023-06-24T05:11:09;25.00;72.40
70986;DHT22;58645;43.068;25.610;2023-06-24T05:13:34;25.20;73.20
70986;DHT22;58645;43.068;25.610;2023-06-24T05:16:00;25.40;73.30
70986;DHT22;58645;43.068;25.610;2023-06-24T05:18:26;25.50;73.90
70986;DHT22;58645;43.068;25.610;2023-06-24T05:20:51;25.70;73.50
70986;DHT22;58645;43.068;25.610;2023-06-24T05:23:18;25.80;73.00
70986;DHT22;58645;43.068;25.610;2023-06-24T05:25:43;26.00;71.10
70986;DHT22;58645;43.068;25.610;2023-06-24T05:28:09;26.10;70.40
70986;DHT22;58645;43.068;25.610;2023-06-24T05:30:34;26.10;69.70
70986;DHT22;58645;43.068;25.610;2023-06-24T05:33:00;26.30;69.30
70986;DHT22;58645;43.068;25.610;2023-06-24T05:35:26;26.40;68.80
70986;DHT22;58645;43.068;25.610;2023-06-24T05:37:51;26.50;68.30
70986;DHT22;58645;43.068;25.610;2023-06-24T05:40:17;26.70;68.20
70986;DHT22;58645;43.068;25.610;2023-06-24T05:42:43;26.90;67.60
70986;DHT22;58645;43.068;25.610;2023-06-24T05:45:08;26.90;66.70
70986;DHT22;58645;43.068;25.610;2023-06-24T05:47:34;26.90;67.80
70986;DHT22;58645;43.068;25.610;2023-06-24T05:50:00;27.10;67.20
70986;DHT22;58645;43.068;25.610;2023-06-24T05:52:25;27.30;66.60
70986;DHT22;58645;43.068;25.610;2023-06-24T05:54:51;27.50;65.40
70986;DHT22;58645;43.068;25.610;2023-06-24T05:57:17;27.60;65.70
70986;DHT22;58645;43.068;25.610;2023-06-24T05:59:43;27.80;64.70
70986;DHT22;58645;43.068;25.610;2023-06-24T06:02:08;27.90;65.40
70986;DHT22;58645;43.068;25.610;2023-06-24T06:04:35;28.20;65.20
70986;DHT22;58645;43.068;25.610;2023-06-24T06:07:00;28.40;63.90
70986;DHT22;58645;43.068;25.610;2023-06-24T06:09:26;28.60;64.10
70986;DHT22;58645;43.068;25.610;2023-06-24T06:11:52;28.70;63.50
70986;DHT22;58645;43.068;25.610;2023-06-24T06:14:18;28.70;64.50
70986;DHT22;58645;43.068;25.610;2023-06-24T06:16:43;28.80;64.30
70986;DHT22;58645;43.068;25.610;2023-06-24T06:19:09;29.20;64.30
70986;DHT22;58645;43.068;25.610;2023-06-24T06:21:36;29.40;63.30
70986;DHT22;58645;43.068;25.610;2023-06-24T06:24:02;29.70;62.60
70986;DHT22;58645;43.068;25.610;2023-06-24T06:26:28;29.80;62.10
70986;DHT22;58645;43.068;25.610;2023-06-24T06:28:54;30.20;62.60
70986;DHT22;58645;43.068;25.610;2023-06-24T06:31:19;30.30;62.20
70986;DHT22;58645;43.068;25.610;2023-06-24T06:33:47;30.80;61.10
70986;DHT22;58645;43.068;25.610;2023-06-24T06:36:13;31.00;59.80
70986;DHT22;58645;43.068;25.610;2023-06-24T06:38:40;31.50;59.50
70986;DHT22;58645;43.068;25.610;2023-06-24T06:41:06;31.70;57.60
70986;DHT22;58645;43.068;25.610;2023-06-24T06:43:33;32.10;56.90
70986;DHT22;58645;43.068;25.610;2023-06-24T06:45:59;32.30;55.70
70986;DHT22;58645;43.068;25.610;2023-06-24T06:48:25;32.50;54.80
70986;DHT22;58645;43.068;25.610;2023-06-24T06:50:50;32.70;54.20
70986;DHT22;58645;43.068;25.610;2023-06-24T06:53:18;32.80;53.20
70986;DHT22;58645;43.068;25.610;2023-06-24T06:55:43;33.10;52.80
70986;DHT22;58645;43.068;25.610;2023-06-24T06:58:09;33.50;52.00
70986;DHT22;58645;43.068;25.610;2023-06-24T07:00:35;34.00;52.00
70986;DHT22;58645;43.068;25.610;2023-06-24T07:03:01;34.20;51.60
70986;DHT22;58645;43.068;25.610;2023-06-24T07:05:27;34.60;51.50
70986;DHT22;58645;43.068;25.610;2023-06-24T07:07:53;34.90;50.90
70986;DHT22;58645;43.068;25.610;2023-06-24T07:10:19;35.10;51.30
70986;DHT22;58645;43.068;25.610;2023-06-24T07:12:45;35.30;48.90
70986;DHT22;58645;43.068;25.610;2023-06-24T07:15:11;35.50;48.20
70986;DHT22;58645;43.068;25.610;2023-06-24T07:17:37;35.50;47.90
70986;DHT22;58645;43.068;25.610;2023-06-24T07:20:03;35.70;47.30
70986;DHT22;58645;43.068;25.610;2023-06-24T07:22:29;35.90;47.20
70986;DHT22;58645;43.068;25.610;2023-06-24T07:24:56;36.00;47.50
70986;DHT22;58645;43.068;25.610;2023-06-24T07:27:22;36.00;48.10
70986;DHT22;58645;43.068;25.610;2023-06-24T07:29:48;36.20;47.00
70986;DHT22;58645;43.068;25.610;2023-06-24T07:32:13;36.10;45.20
70986;DHT22;58645;43.068;25.610;2023-06-24T07:34:39;35.90;44.40
70986;DHT22;58645;43.068;25.610;2023-06-24T07:37:05;36.00;45.00
70986;DHT22;58645;43.068;25.610;2023-06-24T07:39:31;36.40;44.70
70986;DHT22;58645;43.068;25.610;2023-06-24T07:41:56;36.60;44.60
70986;DHT22;58645;43.068;25.610;2023-06-24T07:44:22;36.50;44.20
70986;DHT22;58645;43.068;25.610;2023-06-24T07:46:48;36.50;43.20
70986;DHT22;58645;43.068;25.610;2023-06-24T07:49:14;36.70;42.80
70986;DHT22;58645;43.068;25.610;2023-06-24T07:51:40;36.90;43.20
70986;DHT22;58645;43.068;25.610;2023-06-24T07:54:05;36.70;43.50
70986;DHT22;58645;43.068;25.610;2023-06-24T07:56:31;36.90;42.00
70986;DHT22;58645;43.068;25.610;2023-06-24T07:58:57;36.90;44.30
70986;DHT22;58645;43.068;25.610;2023-06-24T08:01:23;37.20;43.90
70986;DHT22;58645;43.068;25.610;2023-06-24T08:03:49;37.20;42.00
70986;DHT22;58645;43.068;25.610;2023-06-24T08:06:14;37.40;41.90
70986;DHT22;58645;43.068;25.610;2023-06-24T08:08:40;37.70;41.20
70986;DHT22;58645;43.068;25.610;2023-06-24T08:11:06;37.80;42.90
70986;DHT22;58645;43.068;25.610;2023-06-24T08:13:32;37.70;42.70
70986;DHT22;58645;43.068;25.610;2023-06-24T08:15:57;37.80;40.40
70986;DHT22;58645;43.068;25.610;2023-06-24T08:18:23;37.90;43.00
70986;DHT22;58645;43.068;25.610;2023-06-24T08:20:49;37.90;41.30
70986;DHT22;58645;43.068;25.610;2023-06-24T08:23:14;38.10;40.90
70986;DHT22;58645;43.068;25.610;2023-06-24T08:25:40;38.20;41.80
70986;DHT22;58645;43.068;25.610;2023-06-24T08:28:06;38.60;40.70
70986;DHT22;58645;43.068;25.610;2023-06-24T08:30:32;38.80;40.90
70986;DHT22;58645;43.068;25.610;2023-06-24T08:32:58;38.90;39.40
70986;DHT22;58645;43.068;25.610;2023-06-24T08:35:24;38.90;37.20
70986;DHT22;58645;43.068;25.610;2023-06-24T08:37:49;39.00;37.60
70986;DHT22;58645;43.068;25.610;2023-06-24T08:40:15;38.70;37.10
70986;DHT22;58645;43.068;25.610;2023-06-24T08:42:43;39.00;37.70
70986;DHT22;58645;43.068;25.610;2023-06-24T08:45:09;39.40;36.20
70986;DHT22;58645;43.068;25.610;2023-06-24T08:47:36;39.70;35.40
70986;DHT22;58645;43.068;25.610;2023-06-24T08:50:09;39.80;35.20
70986;DHT22;58645;43.068;25.610;2023-06-24T08:52:38;39.70;34.50
70986;DHT22;58645;43.068;25.610;2023-06-24T08:55:06;39.40;35.30
70986;DHT22;58645;43.068;25.610;2023-06-24T08:57:35;39.30;35.30
70986;DHT22;58645;43.068;25.610;2023-06-24T09:00:01;39.20;36.10
70986;DHT22;58645;43.068;25.610;2023-06-24T09:02:30;39.10;34.70
70986;DHT22;58645;43.068;25.610;2023-06-24T09:04:58;39.00;36.20
70986;DHT22;58645;43.068;25.610;2023-06-24T09:07:27;39.20;35.30
70986;DHT22;58645;43.068;25.610;2023-06-24T09:09:53;39.70;35.40
70986;DHT22;58645;43.068;25.610;2023-06-24T09:12:19;39.80;33.90
70986;DHT22;58645;43.068;25.610;2023-06-24T09:14:48;39.90;34.80
70986;DHT22;58645;43.068;25.610;2023-06-24T09:17:14;39.40;34.70
70986;DHT22;58645;43.068;25.610;2023-06-24T09:19:40;39.30;34.70
70986;DHT22;58645;43.068;25.610;2023-06-24T09:22:08;39.60;36.40
70986;DHT22;58645;43.068;25.610;2023-06-24T09:24:41;39.70;34.40
70986;DHT22;58645;43.068;25.610;2023-06-24T09:27:07;40.00;33.90
70986;DHT22;58645;43.068;25.610;2023-06-24T09:29:34;39.70;33.50
70986;DHT22;58645;43.068;25.610;2023-06-24T09:32:04;39.90;33.70
70986;DHT22;58645;43.068;25.610;2023-06-24T09:34:31;40.00;33.40
70986;DHT22;58645;43.068;25.610;2023-06-24T09:36:58;39.90;34.40
70986;DHT22;58645;43.068;25.610;2023-06-24T09:39:25;39.70;33.20
70986;DHT22;58645;43.068;25.610;2023-06-24T09:41:56;39.60;33.90
70986;DHT22;58645;43.068;25.610;2023-06-24T09:44:22;39.90;33.20
70986;DHT22;58645;43.068;25.610;2023-06-24T09:46:47;40.20;34.20
70986;DHT22;58645;43.068;25.610;2023-06-24T09:49:14;40.50;32.90
70986;DHT22;58645;43.068;25.610;2023-06-24T09:51:43;40.20;33.20
70986;DHT22;58645;43.068;25.610;2023-06-24T09:54:11;39.80;34.20
70986;DHT22;58645;43.068;25.610;2023-06-24T09:56:40;39.90;35.50
70986;DHT22;58645;43.068;25.610;2023-06-24T09:59:07;39.80;35.40
70986;DHT22;58645;43.068;25.610;2023-06-24T10:01:36;39.70;34.70
70986;DHT22;58645;43.068;25.610;2023-06-24T10:04:04;39.50;35.60
70986;DHT22;58645;43.068;25.610;2023-06-24T10:06:34;39.40;34.90
70986;DHT22;58645;43.068;25.610;2023-06-24T10:09:01;39.40;34.80
70986;DHT22;58645;43.068;25.610;2023-06-24T10:11:27;39.50;34.50
70986;DHT22;58645;43.068;25.610;2023-06-24T10:13:53;39.50;35.60
70986;DHT22;58645;43.068;25.610;2023-06-24T10:16:20;39.70;36.60
70986;DHT22;58645;43.068;25.610;2023-06-24T10:18:46;39.50;36.80
70986;DHT22;58645;43.068;25.610;2023-06-24T10:21:13;39.30;36.10
70986;DHT22;58645;43.068;25.610;2023-06-24T10:26:29;38.90;35.80
70986;DHT22;58645;43.068;25.610;2023-06-24T10:39:52;38.70;36.00
70986;DHT22;58645;43.068;25.610;2023-06-24T10:44:51;38.30;37.10
70986;DHT22;58645;43.068;25.610;2023-06-24T10:47:17;38.60;36.20
70986;DHT22;58645;43.068;25.610;2023-06-24T10:49:43;38.50;36.90
70986;DHT22;58645;43.068;25.610;2023-06-24T10:52:10;38.60;36.40
70986;DHT22;58645;43.068;25.610;2023-06-24T10:54:40;38.60;35.70
70986;DHT22;58645;43.068;25.610;2023-06-24T10:57:07;38.30;37.50
70986;DHT22;58645;43.068;25.610;2023-06-24T10:59:57;38.20;36.00
70986;DHT22;58645;43.068;25.610;2023-06-24T11:02:27;37.90;36.30
70986;DHT22;58645;43.068;25.610;2023-06-24T11:04:54;37.80;37.20
70986;DHT22;58645;43.068;25.610;2023-06-24T11:07:22;38.00;37.80
70986;DHT22;58645;43.068;25.610;2023-06-24T11:09:52;38.50;37.00
70986;DHT22;58645;43.068;25.610;2023-06-24T11:12:19;38.70;37.30
70986;DHT22;58645;43.068;25.610;2023-06-24T11:14:44;38.80;36.00
70986;DHT22;58645;43.068;25.610;2023-06-24T11:17:10;38.80;36.20
70986;DHT22;58645;43.068;25.610;2023-06-24T11:19:36;39.00;35.10
70986;DHT22;58645;43.068;25.610;2023-06-24T11:22:06;39.10;34.00
70986;DHT22;58645;43.068;25.610;2023-06-24T11:24:33;39.00;35.30
70986;DHT22;58645;43.068;25.610;2023-06-24T11:26:59;38.50;34.70
70986;DHT22;58645;43.068;25.610;2023-06-24T11:29:29;38.20;34.20
70986;DHT22;58645;43.068;25.610;2023-06-24T11:31:55;37.90;33.70
70986;DHT22;58645;43.068;25.610;2023-06-24T11:34:21;37.70;34.10
70986;DHT22;58645;43.068;25.610;2023-06-24T11:36:48;37.80;34.10
70986;DHT22;58645;43.068;25.610;2023-06-24T11:39:27;38.20;33.20
70986;DHT22;58645;43.068;25.610;2023-06-24T11:41:54;37.90;32.50
70986;DHT22;58645;43.068;25.610;2023-06-24T11:44:26;37.90;32.70
70986;DHT22;58645;43.068;25.610;2023-06-24T11:46:52;37.90;32.00
70986;DHT22;58645;43.068;25.610;2023-06-24T11:49:19;38.00;32.70
70986;DHT22;58645;43.068;25.610;2023-06-24T11:51:49;37.90;31.60
70986;DHT22;58645;43.068;25.610;2023-06-24T11:54:20;37.90;32.40
70986;DHT22;58645;43.068;25.610;2023-06-24T11:56:55;37.70;33.10
70986;DHT22;58645;43.068;25.610;2023-06-24T11:59:21;37.30;32.90
70986;DHT22;58645;43.068;25.610;2023-06-24T12:01:55;37.30;33.50
70986;DHT22;58645;43.068;25.610;2023-06-24T12:04:21;37.30;34.00
70986;DHT22;58645;43.068;25.610;2023-06-24T12:06:52;37.50;33.60
70986;DHT22;58645;43.068;25.610;2023-06-24T12:09:18;37.70;32.70
70986;DHT22;58645;43.068;25.610;2023-06-24T12:11:44;38.00;32.00
70986;DHT22;58645;43.068;25.610;2023-06-24T12:14:10;37.90;31.50
70986;DHT22;58645;43.068;25.610;2023-06-24T12:16:38;38.00;32.20
70986;DHT22;58645;43.068;25.610;2023-06-24T12:19:04;38.00;30.70
70986;DHT22;58645;43.068;25.610;2023-06-24T12:21:30;37.50;31.80
70986;DHT22;58645;43.068;25.610;2023-06-24T12:23:55;37.30;31.30
70986;DHT22;58645;43.068;25.610;2023-06-24T12:26:21;37.10;31.20
70986;DHT22;58645;43.068;25.610;2023-06-24T12:28:47;37.20;32.20
70986;DHT22;58645;43.068;25.610;2023-06-24T12:31:12;37.30;32.10
70986;DHT22;58645;43.068;25.610;2023-06-24T12:33:38;37.30;32.00
70986;DHT22;58645;43.068;25.610;2023-06-24T12:36:04;37.20;31.50
70986;DHT22;58645;43.068;25.610;2023-06-24T12:38:30;37.20;30.20
70986;DHT22;58645;43.068;25.610;2023-06-24T12:40:57;37.20;31.10
70986;DHT22;58645;43.068;25.610;2023-06-24T12:43:23;37.00;29.00
70986;DHT22;58645;43.068;25.610;2023-06-24T12:45:48;37.00;30.60
70986;DHT22;58645;43.068;25.610;2023-06-24T12:48:16;37.20;30.00
70986;DHT22;58645;43.068;25.610;2023-06-24T12:50:42;37.00;30.40
70986;DHT22;58645;43.068;25.610;2023-06-24T12:53:08;37.10;29.20
70986;DHT22;58645;43.068;25.610;2023-06-24T12:55:36;37.20;28.30
70986;DHT22;58645;43.068;25.610;2023-06-24T12:58:02;37.20;28.20
70986;DHT22;58645;43.068;25.610;2023-06-24T13:00:28;37.20;26.60
70986;DHT22;58645;43.068;25.610;2023-06-24T13:02:54;37.30;27.40
70986;DHT22;58645;43.068;25.610;2023-06-24T13:05:19;37.50;28.20
70986;DHT22;58645;43.068;25.610;2023-06-24T13:07:45;37.50;28.60
70986;DHT22;58645;43.068;25.610;2023-06-24T13:10:11;37.70;28.30
70986;DHT22;58645;43.068;25.610;2023-06-24T13:12:37;37.50;28.70
70986;DHT22;58645;43.068;25.610;2023-06-24T13:15:04;37.10;26.80
70986;DHT22;58645;43.068;25.610;2023-06-24T13:17:30;37.00;28.20
70986;DHT22;58645;43.068;25.610;2023-06-24T13:19:56;36.80;28.50
70986;DHT22;58645;43.068;25.610;2023-06-24T13:22:23;36.80;29.00
70986;DHT22;58645;43.068;25.610;2023-06-24T13:24:48;36.70;28.90
70986;DHT22;58645;43.068;25.610;2023-06-24T13:27:14;36.70;29.90
70986;DHT22;58645;43.068;25.610;2023-06-24T13:29:40;36.60;30.60
70986;DHT22;58645;43.068;25.610;2023-06-24T13:32:06;36.40;31.00
70986;DHT22;58645;43.068;25.610;2023-06-24T13:34:32;36.30;31.20
70986;DHT22;58645;43.068;25.610;2023-06-24T13:36:57;36.20;32.00
70986;DHT22;58645;43.068;25.610;2023-06-24T13:39:23;36.30;33.20
70986;DHT22;58645;43.068;25.610;2023-06-24T13:41:50;36.10;32.30
70986;DHT22;58645;43.068;25.610;2023-06-24T13:44:16;35.80;30.90
70986;DHT22;58645;43.068;25.610;2023-06-24T13:46:42;35.50;31.70
70986;DHT22;58645;43.068;25.610;2023-06-24T13:49:08;35.20;33.10
70986;DHT22;58645;43.068;25.610;2023-06-24T13:51:34;35.10;33.90
70986;DHT22;58645;43.068;25.610;2023-06-24T13:54:00;34.80;33.70
70986;DHT22;58645;43.068;25.610;2023-06-24T13:56:26;34.50;34.40
70986;DHT22;58645;43.068;25.610;2023-06-24T13:58:53;34.30;34.80
70986;DHT22;58645;43.068;25.610;2023-06-24T14:01:20;34.20;35.90
70986;DHT22;58645;43.068;25.610;2023-06-24T14:03:46;34.10;36.80
70986;DHT22;58645;43.068;25.610;2023-06-24T14:06:17;34.00;36.60
70986;DHT22;58645;43.068;25.610;2023-06-24T14:08:44;33.90;36.60
70986;DHT22;58645;43.068;25.610;2023-06-24T14:11:10;33.90;36.10
70986;DHT22;58645;43.068;25.610;2023-06-24T14:13:36;33.80;37.10
70986;DHT22;58645;43.068;25.610;2023-06-24T14:16:03;33.70;37.80
70986;DHT22;58645;43.068;25.610;2023-06-24T14:18:29;33.60;37.80
70986;DHT22;58645;43.068;25.610;2023-06-24T14:20:59;33.50;37.50
70986;DHT22;58645;43.068;25.610;2023-06-24T14:23:24;33.50;38.10
70986;DHT22;58645;43.068;25.610;2023-06-24T14:25:52;33.50;38.30
70986;DHT22;58645;43.068;25.610;2023-06-24T14:28:18;33.50;38.70
70986;DHT22;58645;43.068;25.610;2023-06-24T14:30:44;33.40;39.20
70986;DHT22;58645;43.068;25.610;2023-06-24T14:33:11;33.30;40.20
70986;DHT22;58645;43.068;25.610;2023-06-24T14:35:37;33.20;40.00
70986;DHT22;58645;43.068;25.610;2023-06-24T14:38:03;32.90;39.40
70986;DHT22;58645;43.068;25.610;2023-06-24T14:40:29;32.80;40.10
70986;DHT22;58645;43.068;25.610;2023-06-24T14:42:54;32.80;40.50
70986;DHT22;58645;43.068;25.610;2023-06-24T14:45:20;32.70;41.50
70986;DHT22;58645;43.068;25.610;2023-06-24T14:47:46;32.60;41.30
70986;DHT22;58645;43.068;25.610;2023-06-24T14:50:12;32.50;41.90
70986;DHT22;58645;43.068;25.610;2023-06-24T14:52:38;32.50;41.80
70986;DHT22;58645;43.068;25.610;2023-06-24T14:55:04;32.50;42.20
70986;DHT22;58645;43.068;25.610;2023-06-24T14:57:30;32.40;42.40
70986;DHT22;58645;43.068;25.610;2023-06-24T14:59:55;32.30;42.60
70986;DHT22;58645;43.068;25.610;2023-06-24T15:02:21;32.30;42.50
70986;DHT22;58645;43.068;25.610;2023-06-24T15:04:47;32.20;42.80
70986;DHT22;58645;43.068;25.610;2023-06-24T15:07:12;32.10;42.80
70986;DHT22;58645;43.068;25.610;2023-06-24T15:09:38;32.10;43.20
70986;DHT22;58645;43.068;25.610;2023-06-24T15:12:04;32.10;43.30
70986;DHT22;58645;43.068;25.610;2023-06-24T15:14:30;32.00;44.00
70986;DHT22;58645;43.068;25.610;2023-06-24T15:16:55;31.90;43.60
70986;DHT22;58645;43.068;25.610;2023-06-24T15:19:24;31.90;43.40
70986;DHT22;58645;43.068;25.610;2023-06-24T15:21:49;31.80;43.70
70986;DHT22;58645;43.068;25.610;2023-06-24T15:24:15;31.80;44.40
70986;DHT22;58645;43.068;25.610;2023-06-24T15:26:41;31.70;44.90
70986;DHT22;58645;43.068;25.610;2023-06-24T15:29:07;31.70;46.50
70986;DHT22;58645;43.068;25.610;2023-06-24T15:31:32;31.60;49.10
70986;DHT22;58645;43.068;25.610;2023-06-24T15:33:58;31.50;50.00
70986;DHT22;58645;43.068;25.610;2023-06-24T15:36:24;31.40;50.00
70986;DHT22;58645;43.068;25.610;2023-06-24T15:38:55;31.30;50.40